Time;durP1;ratioP1;P1;durP2;ratioP2;P2;SDS_P1;SDS_P2;PMS_P1;PMS_P2;Temp;Humidity;BMP_temperature;BMP_pressure;BME280_temperature;BME280_humidity;BME280_pressure;Samples;Min_cycle;Max_cycle;Signal;HPM_P1;HPM_P2
2023/04/14 00:01:52;;;;;;;;;0.00;0.00;;;;;10.79;71.91;100236.41;5081943;28;45721;-85
2023/04/14 00:04:18;;;;;;;;;1.00;1.00;;;;;10.80;71.95;100240.69;5095911;27;46912;-86
2023/04/14 00:06:43;;;;;;;;;3.00;1.00;;;;;10.80;71.97;100238.91;5080281;28;46210;-87
2023/04/14 00:09:09;;;;;;;;;1.00;1.00;;;;;10.81;71.94;100230.09;5060298;28;45642;-89
2023/04/14 00:11:35;;;;;;;;;1.00;1.00;;;;;10.86;72.24;100237.59;5076033;28;45658;-82
2023/04/14 00:14:01;;;;;;;;;0.75;0.75;;;;;10.85;72.09;100228.88;5074219;28;48315;-86
2023/04/14 00:16:28;;;;;;;;;0.50;0.50;;;;;10.84;71.94;100216.75;5075857;27;46168;-87
2023/04/14 00:18:59;;;;;;;;;1.00;1.00;;;;;10.86;71.87;100220.06;5074010;28;45757;-87
2023/04/14 00:21:25;;;;;;;;;2.00;1.00;;;;;10.87;72.03;100219.13;5075128;28;45991;-84
2023/04/14 00:23:51;;;;;;;;;1.00;1.00;;;;;10.89;72.14;100221.63;5073892;28;45887;-82
2023/04/14 00:26:16;;;;;;;;;1.00;1.00;;;;;10.87;72.01;100221.75;5074287;28;45756;-88
2023/04/14 00:28:42;;;;;;;;;1.00;1.00;;;;;10.88;71.91;100215.56;5074160;28;45698;-88
2023/04/14 00:31:07;;;;;;;;;1.00;1.00;;;;;10.87;71.98;100213.06;5073699;28;46005;-86
2023/04/14 00:33:32;;;;;;;;;1.75;1.00;;;;;10.86;72.22;100212.22;5052610;28;47830;-89
2023/04/14 00:35:58;;;;;;;;;2.25;1.75;;;;;10.83;71.73;100204.59;5071049;28;46103;-85
2023/04/14 00:38:24;;;;;;;;;1.00;1.00;;;;;10.86;71.87;100214.00;5052143;28;45915;-82
2023/04/14 00:40:49;;;;;;;;;3.00;1.75;;;;;10.82;72.06;100205.56;5072567;28;46047;-87
2023/04/14 00:43:18;;;;;;;;;1.75;1.75;;;;;10.81;71.78;100198.63;5055471;28;47214;-86
2023/04/14 00:45:46;;;;;;;;;2.00;1.00;;;;;10.83;71.43;100198.53;5071259;28;46107;-88
2023/04/14 00:48:17;;;;;;;;;2.00;1.00;;;;;10.81;71.96;100196.03;5053617;28;45974;-80
2023/04/14 00:50:43;;;;;;;;;1.75;1.00;;;;;10.77;71.93;100194.59;5073158;27;46137;-86
2023/04/14 00:53:11;;;;;;;;;1.25;1.00;;;;;10.79;72.09;100200.56;5071333;27;46760;-84
2023/04/14 00:55:38;;;;;;;;;1.25;1.00;;;;;10.78;72.00;100198.06;5074791;28;45946;-83
2023/04/14 00:58:03;;;;;;;;;2.00;2.00;;;;;10.77;72.04;100197.22;5075386;28;45855;-80
2023/04/14 01:00:29;;;;;;;;;2.75;1.50;;;;;10.75;71.94;100204.34;5076465;28;45807;-84
2023/04/14 01:02:55;;;;;;;;;0.25;0.25;;;;;10.71;71.69;100196.88;5071086;28;45980;-89
2023/04/14 01:05:21;;;;;;;;;1.00;1.00;;;;;10.67;72.09;100196.28;5074286;28;46430;-86
2023/04/14 01:07:48;;;;;;;;;3.00;1.00;;;;;10.64;72.26;100191.25;5077283;28;46023;-88
2023/04/14 01:10:14;;;;;;;;;0.50;0.50;;;;;10.63;72.25;100202.72;5079033;28;45717;-84
2023/04/14 01:13:01;;;;;;;;;0.00;0.00;;;;;10.58;72.21;100193.56;5076945;28;45683;-86
2023/04/14 01:15:35;;;;;;;;;1.25;1.00;;;;;10.54;72.33;100190.31;5074238;28;47575;-85
2023/04/14 01:18:10;;;;;;;;;0.25;0.25;;;;;10.44;72.34;100192.81;5081371;27;46046;-80
2023/04/14 01:20:47;;;;;;;;;1.00;1.00;;;;;10.43;72.14;100192.94;5083715;28;45576;-84
2023/04/14 01:23:28;;;;;;;;;1.00;0.00;;;;;10.38;72.56;100190.66;5082968;27;45484;-85
2023/04/14 01:26:08;;;;;;;;;1.00;0.75;;;;;10.35;72.47;100190.09;5064826;28;46828;-85
2023/04/14 01:29:02;;;;;;;;;1.50;1.50;;;;;10.35;72.37;100198.78;5071669;28;45750;-85
2023/04/14 01:31:31;;;;;;;;;0.00;0.00;;;;;10.31;72.62;100197.31;5078184;28;45695;-91
2023/04/14 01:34:18;;;;;;;;;0.75;0.75;;;;;10.29;72.65;100203.63;5078647;28;46069;-88
2023/04/14 01:36:51;;;;;;;;;1.75;0.00;;;;;10.26;72.67;100202.06;5080008;28;46106;-87
2023/04/14 01:39:19;;;;;;;;;0.00;0.00;;;;;10.23;72.64;100196.25;5083308;28;45722;-84
2023/04/14 01:41:51;;;;;;;;;1.00;1.00;;;;;10.19;72.82;100198.28;5077510;27;45769;-84
2023/04/14 01:44:21;;;;;;;;;2.00;2.00;;;;;10.18;72.79;100201.00;5086494;28;46444;-88
2023/04/14 01:46:50;;;;;;;;;1.00;1.00;;;;;10.17;72.85;100201.94;5074734;28;46058;-87
2023/04/14 01:49:20;;;;;;;;;1.00;1.00;;;;;10.13;72.70;100198.72;5080755;27;46058;-85
2023/04/14 01:51:47;;;;;;;;;0.75;0.00;;;;;10.11;72.89;100197.97;5073065;28;45688;-83
2023/04/14 01:54:15;;;;;;;;;1.00;1.00;;;;;10.06;72.86;100190.47;5080272;28;47924;-89
2023/04/14 01:56:42;;;;;;;;;0.75;0.00;;;;;10.02;73.07;100191.66;5058552;28;47448;-89
2023/04/14 01:59:10;;;;;;;;;0.75;0.75;;;;;9.96;72.91;100189.50;5080259;27;45727;-86
2023/04/14 02:01:37;;;;;;;;;0.00;0.00;;;;;9.96;72.85;100192.13;5077038;28;45683;-86
2023/04/14 02:04:04;;;;;;;;;1.00;0.00;;;;;9.95;73.09;100193.06;5076328;28;45686;-85
2023/04/14 02:06:32;;;;;;;;;1.00;1.00;;;;;9.93;72.99;100194.16;5069835;28;45628;-81
2023/04/14 02:09:00;;;;;;;;;1.50;1.00;;;;;9.93;73.41;100196.75;5084188;27;45643;-87
2023/04/14 02:11:28;;;;;;;;;0.00;0.00;;;;;9.94;73.09;100203.63;5078848;27;45774;-86
2023/04/14 02:13:55;;;;;;;;;1.75;1.00;;;;;9.93;73.43;100208.03;5076271;27;45731;-87
2023/04/14 02:16:23;;;;;;;;;1.00;1.00;;;;;9.89;73.13;100193.53;5078294;27;47316;-82
2023/04/14 02:18:49;;;;;;;;;2.00;2.00;;;;;9.94;73.31;100204.47;5080559;27;45735;-85
2023/04/14 02:21:17;;;;;;;;;1.00;1.00;;;;;9.94;73.38;100204.47;5077968;28;45075;-87
2023/04/14 02:23:42;;;;;;;;;2.00;2.00;;;;;9.94;73.18;100199.25;5076284;28;45675;-88
2023/04/14 02:26:13;;;;;;;;;2.25;2.00;;;;;9.95;73.39;100203.53;5073283;28;45620;-88
2023/04/14 02:28:52;;;;;;;;;2.00;2.00;;;;;9.96;73.34;100204.38;5079172;28;45585;-89
2023/04/14 02:31:22;;;;;;;;;1.25;1.00;;;;;9.92;73.25;100193.31;5069338;28;45537;-87
2023/04/14 02:33:52;;;;;;;;;1.75;1.75;;;;;9.95;73.32;100195.69;5070561;28;45623;-82
2023/04/14 02:36:23;;;;;;;;;1.25;1.00;;;;;9.94;73.52;100188.78;5082193;28;46256;-88
2023/04/14 02:38:55;;;;;;;;;1.25;1.00;;;;;9.91;73.37;100183.78;5085732;27;45759;-83
2023/04/14 02:41:29;;;;;;;;;2.00;2.00;;;;;9.93;73.45;100178.44;5075406;28;45680;-79
2023/04/14 02:44:17;;;;;;;;;5.75;2.00;;;;;9.92;73.16;100179.38;5079059;28;45929;-85
2023/04/14 02:46:53;;;;;;;;;2.25;1.25;;;;;9.96;73.23;100184.28;5075143;28;45796;-85
2023/04/14 02:49:20;;;;;;;;;2.00;2.00;;;;;9.94;73.23;100174.84;5076600;28;45773;-86
2023/04/14 02:51:47;;;;;;;;;1.50;1.50;;;;;9.92;73.35;100175.00;5076486;28;45530;-87
2023/04/14 02:54:14;;;;;;;;;2.00;2.00;;;;;9.93;73.41;100175.84;5076650;28;46947;-88
2023/04/14 02:56:40;;;;;;;;;2.00;2.00;;;;;9.93;73.62;100166.16;5075394;28;46206;-86
2023/04/14 02:59:06;;;;;;;;;2.00;2.00;;;;;9.92;73.40;100164.53;5067755;27;46210;-90
2023/04/14 03:01:33;;;;;;;;;2.50;2.00;;;;;9.93;73.62;100166.16;5056259;28;45814;-85
2023/04/14 03:03:59;;;;;;;;;1.50;1.50;;;;;9.89;73.40;100151.66;5076695;28;46986;-84
2023/04/14 03:06:26;;;;;;;;;2.75;2.00;;;;;9.93;73.50;100152.28;5081415;27;46166;-91
2023/04/14 03:08:53;;;;;;;;;2.75;2.25;;;;;9.92;73.47;100151.44;5081293;27;45515;-82
2023/04/14 03:11:21;;;;;;;;;2.00;2.00;;;;;9.90;73.52;100148.09;5081821;28;45628;-86
2023/04/14 03:13:50;;;;;;;;;1.75;1.50;;;;;9.92;73.49;100150.59;5081231;28;45832;-83
2023/04/14 03:16:19;;;;;;;;;2.00;2.00;;;;;9.92;73.74;100145.38;5078033;27;46609;-85
2023/04/14 03:18:47;;;;;;;;;3.00;3.00;;;;;9.90;73.61;100136.78;5085387;27;45779;-86
2023/04/14 03:21:15;;;;;;;;;2.00;2.00;;;;;9.91;73.23;100130.63;5079108;27;45876;-89
2023/04/14 03:23:43;;;;;;;;;2.00;2.00;;;;;9.88;73.52;100130.88;5071145;28;45530;-85
2023/04/14 03:26:12;;;;;;;;;5.00;3.00;;;;;9.87;73.55;100135.25;5074628;28;45852;-83
2023/04/14 03:28:41;;;;;;;;;1.50;1.00;;;;;9.90;73.30;100142.03;5068282;28;45750;-86
2023/04/14 03:31:10;;;;;;;;;2.00;2.00;;;;;9.91;73.42;100138.47;5075106;28;45606;-84
2023/04/14 03:33:37;;;;;;;;;2.00;2.00;;;;;9.89;73.38;100137.75;5074757;28;46079;-86
2023/04/14 03:36:05;;;;;;;;;1.25;1.25;;;;;9.89;73.78;100132.50;5071156;28;46099;-82
2023/04/14 03:38:32;;;;;;;;;2.00;2.00;;;;;9.87;73.61;100135.25;5080871;27;45699;-86
2023/04/14 03:41:02;;;;;;;;;3.00;3.00;;;;;9.88;73.74;100136.91;5079950;28;45486;-87
2023/04/14 03:43:29;;;;;;;;;2.00;2.00;;;;;9.87;73.58;100137.03;5079279;28;46384;-83
2023/04/14 03:45:55;;;;;;;;;2.00;1.00;;;;;9.87;73.85;100137.03;5079406;28;45660;-84
2023/04/14 03:48:25;;;;;;;;;2.75;2.00;;;;;9.83;73.83;100136.41;5085047;28;45910;-81
2023/04/14 03:50:52;;;;;;;;;2.00;1.75;;;;;9.84;73.66;100132.03;5088210;27;45810;-80
2023/04/14 03:53:20;;;;;;;;;3.00;2.00;;;;;9.84;73.94;100138.09;5083526;27;45697;-85
2023/04/14 03:55:48;;;;;;;;;4.00;2.75;;;;;9.78;73.74;100128.09;5076068;28;45704;-88
2023/04/14 03:58:16;;;;;;;;;3.00;2.50;;;;;9.79;73.83;100132.38;5071176;27;45647;-82
2023/04/14 04:00:43;;;;;;;;;4.00;2.75;;;;;9.73;74.09;100127.59;5057664;28;45684;-85
2023/04/14 04:03:09;;;;;;;;;2.75;2.75;;;;;9.68;73.84;100129.72;5075832;27;46488;-83
2023/04/14 04:05:38;;;;;;;;;3.00;2.00;;;;;9.65;74.10;100125.59;5081660;28;45546;-88
2023/04/14 04:08:05;;;;;;;;;1.50;1.50;;;;;9.62;73.97;100131.03;5084588;28;45589;-82
2023/04/14 04:10:35;;;;;;;;;1.75;1.75;;;;;9.57;73.84;100130.53;5067063;28;45799;-91
2023/04/14 04:13:01;;;;;;;;;2.25;2.00;;;;;9.55;74.15;100126.38;5081851;28;45767;-89
2023/04/14 04:15:28;;;;;;;;;2.00;2.00;;;;;9.53;74.08;100123.03;5082424;27;45694;-87
2023/04/14 04:17:56;;;;;;;;;2.25;2.00;;;;;9.53;74.14;100123.88;5095496;27;46490;-84
2023/04/14 04:20:24;;;;;;;;;3.00;2.00;;;;;9.56;74.00;100122.78;5065129;28;45685;-78
2023/04/14 04:22:55;;;;;;;;;2.00;1.50;;;;;9.54;74.26;100119.47;5085337;28;46836;-86
2023/04/14 04:25:22;;;;;;;;;1.75;1.75;;;;;9.54;74.17;100112.47;5077712;28;46101;-81
2023/04/14 04:27:50;;;;;;;;;3.00;2.00;;;;;9.53;74.02;100110.81;5075746;27;45775;-90
2023/04/14 04:30:18;;;;;;;;;4.25;2.25;;;;;9.53;74.11;100113.41;5083833;27;45804;-80
2023/04/14 04:32:44;;;;;;;;;2.75;2.00;;;;;9.49;74.08;100100.69;5077400;27;46506;-86
2023/04/14 04:35:11;;;;;;;;;2.75;2.75;;;;;9.50;74.09;100104.97;5084777;28;47343;-79
2023/04/14 04:37:38;;;;;;;;;2.50;2.50;;;;;9.49;74.07;100103.31;5085852;28;46193;-79
2023/04/14 04:40:09;;;;;;;;;2.75;2.25;;;;;9.47;74.32;100105.19;5086236;28;45553;-83
2023/04/14 04:42:41;;;;;;;;;5.00;2.75;;;;;9.46;74.24;100103.50;5068214;28;45641;-78
2023/04/14 04:45:06;;;;;;;;;5.25;2.75;;;;;9.41;74.21;100097.78;5070658;27;45575;-82
2023/04/14 04:47:32;;;;;;;;;2.00;2.00;;;;;9.44;74.12;100097.59;5093564;28;45685;-79
2023/04/14 04:49:57;;;;;;;;;2.00;2.00;;;;;9.39;74.15;100087.47;5078832;27;45541;-83
2023/04/14 04:52:22;;;;;;;;;3.00;3.00;;;;;9.44;74.25;100087.13;5089558;28;45517;-85
2023/04/14 04:54:52;;;;;;;;;3.00;2.75;;;;;9.43;74.56;100099.38;5082998;28;46964;-87
2023/04/14 04:57:19;;;;;;;;;1.75;1.25;;;;;9.41;74.36;100090.78;5073334;28;45716;-80
2023/04/14 04:59:45;;;;;;;;;4.00;4.00;;;;;9.42;74.41;100096.84;5093468;28;45225;-76
2023/04/14 05:02:11;;;;;;;;;5.00;5.00;;;;;9.40;74.31;100085.66;5093161;28;45925;-86
2023/04/14 05:04:36;;;;;;;;;5.75;5.00;;;;;9.36;74.46;100077.22;5090538;27;45714;-81
2023/04/14 05:07:02;;;;;;;;;4.00;4.00;;;;;9.34;74.50;100081.72;5069511;27;46067;-78
2023/04/14 05:09:27;;;;;;;;;2.75;2.75;;;;;9.38;74.85;100087.59;5070849;27;45925;-78
2023/04/14 05:11:53;;;;;;;;;7.50;5.25;;;;;9.37;74.20;100085.91;5079630;27;45662;-72
2023/04/14 05:14:18;;;;;;;;;3.00;3.00;;;;;9.38;74.31;100074.50;5079603;27;45562;-76
2023/04/14 05:16:43;;;;;;;;;5.25;3.50;;;;;9.39;74.26;100076.19;5087759;27;46092;-84
2023/04/14 05:19:09;;;;;;;;;5.00;5.00;;;;;9.39;74.60;100069.19;5081471;27;45650;-85
2023/04/14 05:21:34;;;;;;;;;2.00;2.00;;;;;9.36;74.62;100061.53;5081022;27;47184;-79
2023/04/14 05:24:00;;;;;;;;;5.50;5.25;;;;;9.38;74.30;100057.03;5080672;27;46300;-80
2023/04/14 05:26:25;;;;;;;;;5.25;3.00;;;;;9.40;74.47;100062.13;5073799;27;45820;-79
2023/04/14 05:28:51;;;;;;;;;6.75;6.00;;;;;9.40;74.57;100060.34;5072740;28;46086;-81
2023/04/14 05:31:16;;;;;;;;;5.00;5.00;;;;;9.40;74.42;100062.13;5074889;28;45802;-78
2023/04/14 05:33:42;;;;;;;;;6.50;4.00;;;;;9.40;74.38;100062.97;5071005;27;46043;-76
2023/04/14 05:36:07;;;;;;;;;5.00;5.00;;;;;9.38;74.70;100050.97;5073341;28;45817;-76
2023/04/14 05:38:36;;;;;;;;;7.00;5.75;;;;;9.39;74.72;100057.88;5073826;28;45659;-79
2023/04/14 05:41:02;;;;;;;;;6.00;6.00;;;;;9.39;74.72;100056.09;5069026;28;46386;-80
2023/04/14 05:43:27;;;;;;;;;6.50;6.25;;;;;9.39;74.96;100063.94;5072387;28;46200;-78
2023/04/14 05:45:53;;;;;;;;;5.00;5.00;;;;;9.40;74.93;100054.28;5073511;28;45640;-80
2023/04/14 05:48:18;;;;;;;;;6.50;5.25;;;;;9.39;75.03;100060.50;5073599;28;45530;-81
2023/04/14 05:50:43;;;;;;;;;6.25;6.00;;;;;9.36;74.92;100052.88;5074924;27;45744;-77
2023/04/14 05:53:10;;;;;;;;;7.00;6.00;;;;;9.35;75.06;100049.41;5073447;28;45687;-81
2023/04/14 05:55:37;;;;;;;;;5.75;5.50;;;;;9.40;74.87;100046.44;5071660;28;45972;-82
2023/04/14 05:58:03;;;;;;;;;6.00;5.00;;;;;9.38;74.82;100041.38;5066453;28;45779;-81
2023/04/14 06:00:28;;;;;;;;;7.00;6.00;;;;;9.37;75.05;100036.25;5064888;27;46701;-83
2023/04/14 06:02:54;;;;;;;;;6.50;6.25;;;;;9.33;75.02;100035.66;5071312;27;46301;-77
2023/04/14 06:05:19;;;;;;;;;5.00;3.00;;;;;9.34;74.63;100041.72;5069532;27;46423;-76
2023/04/14 06:07:45;;;;;;;;;5.00;5.00;;;;;9.36;74.84;100038.03;5072699;28;45679;-81
2023/04/14 06:10:11;;;;;;;;;6.00;6.00;;;;;9.39;74.65;100042.19;5072916;28;45824;-78
2023/04/14 06:12:36;;;;;;;;;7.50;6.00;;;;;9.39;74.87;100032.56;5071348;27;46110;-79
2023/04/14 06:15:04;;;;;;;;;6.00;6.00;;;;;9.42;74.86;100049.78;5067226;28;45703;-77
2023/04/14 06:17:30;;;;;;;;;7.00;7.00;;;;;9.40;74.40;100042.06;5084443;27;45794;-79
2023/04/14 06:19:56;;;;;;;;;6.50;6.50;;;;;9.45;74.46;100033.88;5072610;28;46392;-80
2023/04/14 06:22:21;;;;;;;;;7.25;6.50;;;;;9.44;74.65;100025.22;5068906;28;45994;-78
2023/04/14 06:24:47;;;;;;;;;9.50;7.00;;;;;9.49;74.55;100027.47;5065188;27;45836;-78
2023/04/14 06:27:13;;;;;;;;;7.00;7.00;;;;;9.50;74.76;100035.19;5073299;28;45558;-80
2023/04/14 06:29:39;;;;;;;;;8.50;8.00;;;;;9.51;74.73;100031.63;5059499;28;46442;-78
2023/04/14 06:32:05;;;;;;;;;10.25;10.25;;;;;9.54;74.60;100026.19;5070469;27;45706;-79
2023/04/14 06:34:31;;;;;;;;;7.50;7.00;;;;;9.55;74.53;100024.41;5084424;27;47107;-83
2023/04/14 06:36:57;;;;;;;;;11.50;9.00;;;;;9.55;74.63;100029.63;5072371;28;45769;-81
2023/04/14 06:39:23;;;;;;;;;12.00;10.00;;;;;9.56;74.38;100024.25;5072826;28;46429;-81
2023/04/14 06:41:48;;;;;;;;;11.00;8.00;;;;;9.52;74.58;100015.00;5075815;28;45664;-81
2023/04/14 06:44:14;;;;;;;;;9.50;9.50;;;;;9.56;74.39;100008.56;5075358;28;45628;-81
2023/04/14 06:46:39;;;;;;;;;10.75;10.25;;;;;9.58;74.87;100005.84;5075894;28;45764;-85
2023/04/14 06:49:06;;;;;;;;;13.50;11.50;;;;;9.59;74.65;100005.75;5075803;28;46857;-82
2023/04/14 06:54:53;;;;;;;;;10.50;10.25;;;;;9.60;74.65;99983.88;5076177;28;45526;-78
2023/04/14 06:57:19;;;;;;;;;11.75;11.75;;;;;9.62;74.43;99989.81;5077029;28;45648;-82
2023/04/14 06:59:45;;;;;;;;;12.00;12.00;;;;;9.63;74.61;99983.63;5077063;28;46081;-82
2023/04/14 07:02:10;;;;;;;;;14.50;14.25;;;;;9.63;74.29;99982.78;5076661;28;46506;-82
2023/04/14 07:04:36;;;;;;;;;11.75;11.00;;;;;9.67;74.45;99995.50;5076621;28;45701;-76
2023/04/14 07:10:24;;;;;;;;;15.25;13.50;;;;;9.72;74.65;99995.16;5077914;28;45597;-79
2023/04/14 07:12:49;;;;;;;;;15.75;13.25;;;;;9.75;74.37;99997.53;5075219;28;46117;-83
2023/04/14 07:15:15;;;;;;;;;17.00;15.75;;;;;9.78;74.68;99991.22;5075070;28;45607;-76
2023/04/14 07:17:40;;;;;;;;;18.00;15.75;;;;;9.79;74.19;99993.72;5074816;28;45594;-81
2023/04/14 07:20:06;;;;;;;;;14.50;14.00;;;;;9.84;74.02;99996.81;5074932;28;45549;-81
2023/04/14 07:25:56;;;;;;;;;14.50;13.25;;;;;9.87;74.21;99993.97;5072815;28;45871;-78
2023/04/14 07:28:23;;;;;;;;;12.00;12.00;;;;;9.90;74.17;99985.88;5075050;28;45561;-75
2023/04/14 07:30:50;;;;;;;;;16.00;13.50;;;;;9.93;74.28;99985.63;5074819;28;46993;-76
2023/04/14 07:33:20;;;;;;;;;14.50;13.00;;;;;9.94;74.30;99978.63;5090120;27;47670;-79
2023/04/14 07:35:51;;;;;;;;;11.75;11.50;;;;;10.00;74.31;99975.50;5074871;28;45789;-76
2023/04/14 07:41:40;;;;;;;;;10.75;10.75;;;;;10.08;74.08;99963.50;5074459;28;46083;-83
2023/04/14 07:44:05;;;;;;;;;13.25;11.00;;;;;10.14;74.06;99963.97;5074313;28;46250;-83
2023/04/14 07:46:31;;;;;;;;;10.25;9.75;;;;;10.19;74.46;99959.22;5074556;28;45616;-79
2023/04/14 07:48:56;;;;;;;;;10.50;8.00;;;;;10.25;73.86;99950.91;5074579;28;45721;-83
2023/04/14 07:51:21;;;;;;;;;11.25;11.00;;;;;10.27;74.19;99947.19;5074383;28;46185;-82
2023/04/14 07:57:09;;;;;;;;;12.00;10.75;;;;;10.33;74.17;99941.44;5074087;28;45815;-81
2023/04/14 07:59:37;;;;;;;;;10.25;8.00;;;;;10.36;73.88;99937.78;5074537;28;45764;-82
2023/04/14 08:02:02;;;;;;;;;11.00;11.00;;;;;10.37;73.82;99935.00;5074198;28;45458;-82
2023/04/14 08:04:28;;;;;;;;;17.25;16.50;;;;;10.38;73.88;99934.06;5072846;28;46240;-83
2023/04/14 08:06:53;;;;;;;;;15.25;13.50;;;;;10.38;73.68;99930.59;5074088;28;45474;-83
2023/04/14 08:12:40;;;;;;;;;11.75;9.25;;;;;10.47;73.72;99932.50;5074156;28;45493;-84
2023/04/14 08:15:06;;;;;;;;;11.00;9.25;;;;;10.50;73.60;99930.44;5072304;28;46513;-83
2023/04/14 08:17:32;;;;;;;;;9.00;8.00;;;;;10.55;73.26;99934.47;5073644;28;45609;-83
2023/04/14 08:19:57;;;;;;;;;7.25;7.00;;;;;10.59;73.49;99935.88;5074198;28;45506;-79
2023/04/14 08:22:24;;;;;;;;;9.75;7.75;;;;;10.61;73.53;99931.34;5074631;28;45489;-84
2023/04/14 08:24:50;;;;;;;;;8.00;7.00;;;;;10.60;73.48;99930.53;5075331;28;46376;-79
2023/04/14 08:27:15;;;;;;;;;6.25;6.25;;;;;10.64;73.86;99928.47;5075756;28;45610;-81
2023/04/14 08:29:40;;;;;;;;;7.00;6.50;;;;;10.66;73.36;99926.56;5075207;28;45758;-83
2023/04/14 08:32:06;;;;;;;;;5.50;5.50;;;;;10.68;73.12;99933.34;5074490;28;45677;-83
2023/04/14 08:34:31;;;;;;;;;4.75;4.75;;;;;10.73;73.28;99923.31;5073655;28;46027;-82
2023/04/14 08:36:59;;;;;;;;;6.75;5.75;;;;;10.77;72.96;99926.50;5072459;28;45855;-82
2023/04/14 08:42:45;;;;;;;;;6.00;5.50;;;;;10.84;73.18;99917.19;5073816;28;45684;-83
2023/04/14 08:45:11;;;;;;;;;6.00;6.00;;;;;10.92;73.04;99917.38;5055270;28;45779;-83
2023/04/14 08:47:39;;;;;;;;;4.00;4.00;;;;;10.98;73.03;99924.72;5073706;28;45706;-82
2023/04/14 08:50:11;;;;;;;;;4.50;3.75;;;;;11.02;72.86;99913.03;5073818;28;45609;-79
2023/04/14 08:52:40;;;;;;;;;6.75;5.50;;;;;11.05;72.77;99907.53;5074009;28;45693;-81
2023/04/14 08:55:06;;;;;;;;;3.00;3.00;;;;;11.13;72.46;99909.50;5073305;28;45722;-82
2023/04/14 08:57:32;;;;;;;;;6.00;4.00;;;;;11.17;71.87;99910.91;5073889;28;45812;-81
2023/04/14 08:59:58;;;;;;;;;3.50;3.25;;;;;11.22;72.60;99906.13;5073771;28;45729;-79
2023/04/14 09:02:25;;;;;;;;;6.00;4.00;;;;;11.26;72.74;99902.25;5073509;28;45470;-81
2023/04/14 09:04:51;;;;;;;;;7.00;6.50;;;;;11.29;72.23;99900.19;5073172;28;46130;-81
2023/04/14 09:07:18;;;;;;;;;4.50;4.00;;;;;11.34;72.31;99889.31;5073787;28;45549;-81
2023/04/14 09:13:07;;;;;;;;;3.50;3.50;;;;;11.41;71.90;99887.00;5072834;28;45916;-78
2023/04/14 09:15:34;;;;;;;;;5.00;3.00;;;;;11.43;71.83;99885.09;5074667;28;45948;-81
2023/04/14 09:18:01;;;;;;;;;4.00;4.00;;;;;11.44;71.81;99873.63;5076736;28;45799;-83
2023/04/14 09:20:27;;;;;;;;;3.50;3.25;;;;;11.45;71.46;99868.22;5077018;28;45517;-82
2023/04/14 09:22:53;;;;;;;;;4.00;3.33;;;;;11.44;71.30;99863.97;5074972;28;47658;-82
2023/04/14 09:25:19;;;;;;;;;4.00;3.00;;;;;11.44;71.71;99861.34;5076571;28;46130;-82
2023/04/14 09:27:47;;;;;;;;;3.50;3.25;;;;;11.44;71.75;99860.53;5076573;28;45693;-82
2023/04/14 09:30:14;;;;;;;;;5.50;4.00;;;;;11.46;71.89;99864.66;5076765;28;45838;-82
2023/04/14 09:32:42;;;;;;;;;3.00;3.00;;;;;11.49;71.90;99864.41;5076689;28;46291;-81
2023/04/14 09:35:12;;;;;;;;;6.00;6.00;;;;;11.50;71.67;99858.16;5076292;28;45905;-83
2023/04/14 09:37:45;;;;;;;;;4.00;3.50;;;;;11.53;71.92;99859.72;5076776;28;45733;-81
2023/04/14 09:43:33;;;;;;;;;6.50;4.00;;;;;11.59;71.62;99853.94;5075977;28;46033;-77
2023/04/14 09:46:07;;;;;;;;;4.50;3.00;;;;;11.64;71.71;99851.75;5076205;28;46035;-76
2023/04/14 09:48:33;;;;;;;;;3.75;2.00;;;;;11.67;71.42;99846.22;5057907;28;45659;-76
2023/04/14 09:51:08;;;;;;;;;4.00;3.50;;;;;11.71;71.37;99845.00;5076593;28;45671;-77
2023/04/14 09:53:36;;;;;;;;;1.75;1.75;;;;;11.76;71.72;99842.81;5057418;28;47463;-77
2023/04/14 09:56:09;;;;;;;;;4.00;1.75;;;;;11.82;71.36;99841.47;5076277;28;46409;-77
2023/04/14 09:58:43;;;;;;;;;3.00;2.50;;;;;11.84;71.38;99839.50;5076501;28;45707;-81
2023/04/14 10:01:17;;;;;;;;;3.00;3.00;;;;;11.87;71.01;99832.22;5076391;28;45686;-80
2023/04/14 10:03:43;;;;;;;;;3.00;3.00;;;;;11.91;71.04;99833.59;5075616;28;45856;-82
2023/04/14 10:06:16;;;;;;;;;3.50;3.00;;;;;11.96;71.69;99830.56;5076793;28;46055;-81
2023/04/14 10:08:43;;;;;;;;;2.75;2.50;;;;;11.99;71.45;99831.09;5077607;28;45782;-83
2023/04/14 10:11:19;;;;;;;;;2.00;1.75;;;;;12.04;71.36;99830.69;5078699;28;45521;-83
2023/04/14 10:13:50;;;;;;;;;2.25;2.00;;;;;12.07;71.25;99828.63;5077735;28;45667;-82
2023/04/14 10:16:16;;;;;;;;;3.00;2.25;;;;;12.09;71.02;99828.50;5077305;28;45927;-82
2023/04/14 10:18:42;;;;;;;;;2.50;2.00;;;;;12.09;70.54;99828.50;5076072;28;45562;-81
2023/04/14 10:21:08;;;;;;;;;2.75;1.25;;;;;12.11;71.26;99826.56;5068152;28;45531;-81
2023/04/14 10:23:41;;;;;;;;;3.50;2.00;;;;;12.12;70.93;99818.53;5075594;28;45597;-79
2023/04/14 10:26:07;;;;;;;;;3.00;2.00;;;;;12.15;70.49;99820.88;5057485;28;46927;-83
2023/04/14 10:28:35;;;;;;;;;1.00;1.00;;;;;12.13;71.10;99814.13;5075335;28;45780;-81
2023/04/14 10:31:03;;;;;;;;;1.50;1.00;;;;;12.16;70.83;99814.66;5076207;28;45667;-83
2023/04/14 10:33:29;;;;;;;;;3.00;2.00;;;;;12.16;70.93;99801.53;5075613;28;45635;-81
2023/04/14 10:35:59;;;;;;;;;2.25;2.00;;;;;12.18;70.94;99791.72;5075869;28;45934;-85
2023/04/14 10:38:45;;;;;;;;;2.00;1.75;;;;;12.23;70.48;99791.31;5075403;28;45759;-81
2023/04/14 10:41:12;;;;;;;;;2.75;2.00;;;;;12.24;70.43;99800.84;5074559;28;46074;-83
2023/04/14 10:43:38;;;;;;;;;3.00;1.25;;;;;12.22;70.46;99779.16;5075118;28;45809;-81
2023/04/14 10:46:08;;;;;;;;;1.50;1.00;;;;;12.26;70.25;99791.00;5075465;28;46435;-83
2023/04/14 10:48:38;;;;;;;;;15.75;13.75;;;;;12.27;70.41;99784.81;5073898;28;45853;-80
2023/04/14 10:51:08;;;;;;;;;14.50;9.00;;;;;12.28;70.45;99775.97;5076567;28;45466;-80
2023/04/14 10:53:43;;;;;;;;;2.50;2.00;;;;;12.31;70.30;99780.13;5075732;28;45763;-80
2023/04/14 10:56:09;;;;;;;;;2.75;2.50;;;;;12.32;70.25;99774.69;5076642;28;46415;-84
2023/04/14 10:58:35;;;;;;;;;2.00;1.75;;;;;12.40;69.88;99777.47;5076261;28;45541;-79
2023/04/14 11:01:20;;;;;;;;;2.00;2.00;;;;;12.43;70.11;99764.03;5075976;28;45664;-80
2023/04/14 11:03:45;;;;;;;;;2.75;2.00;;;;;12.44;69.89;99772.75;5075183;28;45720;-80
2023/04/14 11:06:11;;;;;;;;;3.00;2.00;;;;;12.50;70.44;99762.50;5075325;28;45667;-82
2023/04/14 11:08:36;;;;;;;;;3.00;2.00;;;;;12.54;69.96;99763.03;5075392;28;45769;-82
2023/04/14 11:14:30;;;;;;;;;2.00;1.50;;;;;12.54;70.33;99742.03;5074651;28;45513;-81
2023/04/14 11:17:01;;;;;;;;;2.00;1.25;;;;;12.57;70.33;99745.22;5074816;28;46316;-83
2023/04/14 11:19:27;;;;;;;;;2.00;1.00;;;;;12.57;70.19;99736.50;5075035;28;45689;-81
2023/04/14 11:21:52;;;;;;;;;2.00;2.00;;;;;12.54;70.77;99719.22;5056426;28;45839;-78
2023/04/14 11:24:20;;;;;;;;;4.25;3.00;;;;;12.57;70.87;99718.09;5074284;28;45567;-82
2023/04/14 11:26:46;;;;;;;;;5.00;1.75;;;;;12.60;71.13;99720.44;5074542;28;45721;-82
2023/04/14 11:29:12;;;;;;;;;3.00;2.00;;;;;12.59;70.92;99718.78;5074484;28;45697;-84
2023/04/14 11:31:37;;;;;;;;;1.00;1.00;;;;;12.63;71.09;99714.91;5056831;28;45718;-82
2023/04/14 11:34:05;;;;;;;;;2.00;1.75;;;;;12.66;71.18;99714.59;5074240;28;45467;-81
2023/04/14 11:36:31;;;;;;;;;1.25;1.25;;;;;12.68;71.10;99706.59;5074656;28;45546;-82
2023/04/14 11:45:29;;;;;;;;;1.00;1.00;;;;;12.81;71.64;99707.91;5074189;28;45646;-76
2023/04/14 11:48:02;;;;;;;;;3.50;2.50;;;;;12.84;71.30;99705.00;5074396;28;45865;-82
2023/04/14 11:50:34;;;;;;;;;2.75;2.00;;;;;12.86;71.29;99708.28;5074696;28;45720;-81
2023/04/14 11:53:01;;;;;;;;;1.50;1.50;;;;;12.88;71.17;99710.78;5074344;28;45811;-82
2023/04/14 11:55:28;;;;;;;;;2.00;1.00;;;;;12.86;71.04;99708.28;5074352;28;45659;-83
2023/04/14 11:57:57;;;;;;;;;2.00;2.00;;;;;12.85;71.02;99714.50;5074327;28;46027;-82
2023/04/14 12:00:23;;;;;;;;;1.00;1.00;;;;;12.86;71.25;99720.59;5055740;28;45634;-83
2023/04/14 12:02:49;;;;;;;;;1.75;1.00;;;;;12.84;71.07;99733.91;5075235;28;45420;-78
2023/04/14 12:05:20;;;;;;;;;1.00;1.00;;;;;12.83;71.47;99731.41;5075460;28;46877;-83
2023/04/14 12:07:47;;;;;;;;;1.50;1.00;;;;;12.80;71.56;99732.53;5076001;28;46054;-77
2023/04/14 12:10:14;;;;;;;;;1.50;1.00;;;;;12.76;71.70;99735.59;5075409;28;45592;-83
2023/04/14 12:12:40;;;;;;;;;1.75;1.00;;;;;12.72;71.79;99739.50;5076568;28;45855;-84
2023/04/14 12:15:06;;;;;;;;;1.00;1.00;;;;;12.66;72.25;99734.81;5074524;28;45764;-83